createdAt,value
2023-03-10T00:01:20.699Z,12.60
2023-03-10T00:03:49.222Z,12.60
2023-03-10T00:06:20.544Z,12.60
2023-03-10T00:08:48.781Z,12.70
2023-03-10T00:11:19.235Z,12.70
2023-03-10T00:13:47.109Z,12.70
2023-03-10T00:16:20.708Z,12.70
2023-03-10T00:18:49.785Z,12.50
2023-03-10T00:21:20.434Z,12.70
2023-03-10T00:23:48.367Z,12.70
2023-03-10T00:26:19.598Z,12.70
2023-03-10T00:28:48.383Z,12.70
2023-03-10T00:31:19.918Z,12.70
2023-03-10T00:33:47.824Z,12.70
2023-03-10T00:36:19.419Z,12.70
2023-03-10T00:38:50.413Z,12.70
2023-03-10T00:41:22.401Z,12.70
2023-03-10T00:43:51.039Z,12.70
2023-03-10T00:46:20.657Z,12.80
2023-03-10T00:48:48.679Z,12.80
2023-03-10T00:51:17.299Z,12.80
2023-03-10T00:53:45.814Z,12.80
2023-03-10T00:56:16.400Z,12.80
2023-03-10T00:58:47.916Z,12.80
2023-03-10T01:01:20.218Z,12.80
2023-03-10T01:03:48.912Z,12.80
2023-03-10T01:06:16.787Z,12.80
2023-03-10T01:08:44.659Z,12.80
2023-03-10T01:11:15.864Z,12.80
2023-03-10T01:13:46.267Z,12.90
2023-03-10T01:16:14.294Z,12.90
2023-03-10T01:18:43.264Z,12.90
2023-03-10T01:21:18.510Z,12.90
2023-03-10T01:23:46.658Z,12.90
2023-03-10T01:26:15.979Z,12.90
2023-03-10T01:28:47.694Z,12.90
2023-03-10T01:31:16.127Z,12.90
2023-03-10T01:33:45.489Z,12.90
2023-03-10T01:36:17.020Z,12.90
2023-03-10T01:38:48.431Z,12.90
2023-03-10T01:41:17.521Z,13.00
2023-03-10T01:43:49.437Z,13.00
2023-03-10T01:46:48.915Z,12.90
2023-03-10T01:49:28.054Z,12.90
2023-03-10T01:52:04.150Z,13.00
2023-03-10T01:54:43.099Z,13.00
2023-03-10T01:57:13.160Z,13.00
2023-03-10T01:59:43.220Z,13.00
2023-03-10T02:02:11.982Z,13.00
2023-03-10T02:04:45.470Z,13.00
2023-03-10T02:07:15.066Z,13.10
2023-03-10T02:09:47.667Z,13.00
2023-03-10T02:12:16.922Z,13.10
2023-03-10T02:14:48.423Z,13.10
2023-03-10T02:17:20.627Z,13.10
2023-03-10T02:20:20.301Z,13.00
2023-03-10T02:22:49.504Z,13.10
2023-03-10T02:25:40.046Z,13.10
2023-03-10T02:28:09.799Z,13.10
2023-03-10T02:30:41.113Z,13.10
2023-03-10T02:33:14.486Z,13.10
2023-03-10T02:35:43.510Z,13.20
2023-03-10T02:38:15.646Z,13.20
2023-03-10T02:40:49.169Z,13.20
2023-03-10T02:43:27.309Z,13.20
2023-03-10T02:46:05.913Z,13.20
2023-03-10T02:48:38.856Z,13.20
2023-03-10T02:51:18.269Z,13.20
2023-03-10T02:53:46.274Z,13.30
2023-03-10T02:56:14.628Z,13.10
2023-03-10T02:58:45.748Z,13.30
2023-03-10T03:01:13.833Z,13.30
2023-03-10T03:03:43.384Z,13.30
2023-03-10T03:06:12.904Z,13.40
2023-03-10T03:08:41.314Z,13.40
2023-03-10T03:11:11.923Z,13.40
2023-03-10T03:13:40.233Z,13.40
2023-03-10T03:16:11.170Z,13.40
2023-03-10T03:18:41.064Z,13.40
2023-03-10T03:21:15.831Z,13.40
2023-03-10T03:23:45.682Z,13.40
2023-03-10T03:26:21.359Z,13.40
2023-03-10T03:28:52.171Z,13.50
2023-03-10T03:31:27.092Z,13.40
2023-03-10T03:34:04.828Z,13.50
2023-03-10T03:36:33.108Z,13.50
2023-03-10T03:39:01.221Z,13.50
2023-03-10T03:41:32.107Z,13.50
2023-03-10T03:44:00.299Z,13.50
2023-03-10T03:46:29.970Z,13.50
2023-03-10T03:48:59.215Z,13.50
2023-03-10T03:51:27.254Z,13.50
2023-03-10T03:53:55.452Z,13.60
2023-03-10T03:56:23.986Z,13.60
2023-03-10T03:58:51.861Z,13.60
2023-03-10T04:01:20.042Z,13.30
2023-03-10T04:03:53.616Z,13.60
2023-03-10T04:06:22.096Z,13.60
2023-03-10T04:08:51.365Z,13.60
2023-03-10T04:11:20.591Z,13.60
2023-03-10T04:13:50.292Z,13.60
2023-03-10T04:16:19.123Z,13.60
2023-03-10T04:18:47.143Z,13.70
2023-03-10T04:21:18.466Z,13.70
2023-03-10T04:23:49.012Z,13.70
2023-03-10T04:26:20.704Z,13.70
2023-03-10T04:28:48.604Z,13.70
2023-03-10T04:31:20.302Z,13.70
2023-03-10T04:33:50.649Z,13.70
2023-03-10T04:36:21.687Z,13.70
2023-03-10T04:38:54.033Z,13.70
2023-03-10T04:41:24.614Z,13.80
2023-03-10T04:43:52.562Z,13.80
2023-03-10T04:46:20.920Z,13.80
2023-03-10T04:48:49.187Z,13.80
2023-03-10T04:51:17.912Z,13.80
2023-03-10T04:53:51.500Z,13.80
2023-03-10T04:56:20.166Z,13.80
2023-03-10T04:58:48.307Z,13.80
2023-03-10T05:01:17.211Z,13.80
2023-03-10T05:03:49.781Z,13.80
2023-03-10T05:06:22.352Z,13.80
2023-03-10T05:09:04.827Z,13.80
2023-03-10T05:11:34.357Z,13.60
2023-03-10T05:14:03.333Z,13.90
2023-03-10T05:16:31.515Z,13.80
2023-03-10T05:18:59.476Z,13.90
2023-03-10T05:21:29.393Z,13.90
2023-03-10T05:23:58.794Z,13.90
2023-03-10T05:26:28.823Z,13.90
2023-03-10T05:28:57.491Z,13.90
2023-03-10T05:31:35.089Z,13.90
2023-03-10T05:34:09.039Z,13.90
2023-03-10T05:36:37.036Z,14.00
2023-03-10T05:39:09.401Z,14.00
2023-03-10T05:41:42.915Z,14.00
2023-03-10T05:44:11.194Z,14.00
2023-03-10T05:46:40.567Z,14.00
2023-03-10T05:49:09.180Z,14.00
2023-03-10T05:51:37.119Z,14.00
2023-03-10T05:54:06.396Z,14.00
2023-03-10T05:56:34.458Z,14.00
2023-03-10T05:59:06.866Z,14.00
2023-03-10T06:01:37.382Z,14.00
2023-03-10T06:04:05.628Z,14.10
2023-03-10T06:06:34.798Z,14.10
2023-03-10T06:09:02.818Z,14.10
2023-03-10T06:11:30.822Z,14.10
2023-03-10T06:13:58.781Z,14.10
2023-03-10T06:16:28.207Z,14.10
2023-03-10T06:18:56.963Z,14.10
2023-03-10T06:21:25.273Z,14.10
2023-03-10T06:23:53.271Z,14.20
2023-03-10T06:26:22.799Z,14.10
2023-03-10T06:28:50.929Z,14.20
2023-03-10T06:31:23.125Z,14.20
2023-03-10T06:33:52.947Z,14.20
2023-03-10T06:36:22.799Z,14.20
2023-03-10T06:38:51.090Z,14.20
2023-03-10T06:41:19.698Z,14.20
2023-03-10T06:43:48.194Z,14.20
2023-03-10T06:46:17.093Z,14.20
2023-03-10T06:48:45.384Z,14.20
2023-03-10T06:51:18.815Z,14.20
2023-03-10T06:53:47.756Z,14.30
2023-03-10T06:56:18.960Z,14.30
2023-03-10T06:58:48.336Z,14.30
2023-03-10T07:01:26.722Z,14.30
2023-03-10T07:03:55.812Z,14.40
2023-03-10T07:06:26.479Z,14.30
2023-03-10T07:08:55.230Z,14.40
2023-03-10T07:11:25.967Z,14.30
2023-03-10T07:13:54.858Z,14.40
2023-03-10T07:16:23.432Z,14.40
2023-03-10T07:18:51.866Z,14.40
2023-03-10T07:21:22.066Z,14.40
2023-03-10T07:23:51.592Z,14.50
2023-03-10T07:26:19.805Z,14.50
2023-03-10T07:28:48.397Z,14.50
2023-03-10T07:31:17.566Z,14.50
2023-03-10T07:33:45.599Z,14.50
2023-03-10T07:36:16.657Z,14.50
2023-03-10T07:38:45.363Z,14.60
2023-03-10T07:41:18.450Z,14.40
2023-03-10T07:43:47.100Z,14.60
2023-03-10T07:46:16.352Z,14.60
2023-03-10T07:48:45.227Z,14.60
2023-03-10T07:51:13.502Z,14.60
2023-03-10T07:53:41.775Z,14.70
2023-03-10T07:56:14.731Z,14.70
2023-03-10T07:58:42.990Z,14.70
2023-03-10T08:01:17.493Z,14.70
2023-03-10T08:03:46.179Z,14.70
2023-03-10T08:06:19.638Z,14.80
2023-03-10T08:08:47.898Z,14.80
2023-03-10T08:11:18.487Z,14.70
2023-03-10T08:13:47.779Z,14.70
2023-03-10T08:16:17.078Z,14.80
2023-03-10T08:18:45.906Z,14.90
2023-03-10T08:21:13.851Z,14.90
2023-03-10T08:23:42.000Z,14.90
2023-03-10T08:26:14.849Z,14.90
2023-03-10T08:28:44.766Z,15.00
2023-03-10T08:31:15.695Z,15.00
2023-03-10T08:33:45.340Z,15.10
2023-03-10T08:36:16.673Z,15.20
2023-03-10T08:38:46.701Z,15.30
2023-03-10T08:41:18.455Z,15.40
2023-03-10T08:43:50.503Z,15.40
2023-03-10T08:46:21.021Z,15.50
2023-03-10T08:48:49.133Z,15.60
2023-03-10T08:51:19.995Z,15.60
2023-03-10T08:53:50.267Z,15.70
2023-03-10T08:56:20.848Z,15.70
2023-03-10T08:58:50.576Z,15.60
2023-03-10T09:01:19.045Z,15.80
2023-03-10T09:03:47.817Z,15.80
2023-03-10T09:06:16.964Z,15.80
2023-03-10T09:08:45.678Z,15.90
2023-03-10T09:11:18.354Z,15.90
2023-03-10T09:13:46.525Z,15.90
2023-03-10T09:16:16.523Z,15.90
2023-03-10T09:18:44.921Z,15.90
2023-03-10T09:21:15.518Z,16.00
2023-03-10T09:23:47.276Z,16.00
2023-03-10T09:26:16.311Z,16.00
2023-03-10T09:28:44.280Z,16.00
2023-03-10T09:31:19.225Z,15.90
2023-03-10T09:33:48.361Z,16.00
2023-03-10T09:36:17.230Z,16.00
2023-03-10T09:38:45.234Z,16.00
2023-03-10T09:41:38.392Z,16.00
2023-03-10T09:44:24.925Z,16.00
2023-03-10T09:47:19.613Z,15.90
2023-03-10T09:50:03.750Z,16.00
2023-03-10T09:52:45.550Z,16.00
2023-03-10T09:55:21.988Z,16.10
2023-03-10T09:57:53.105Z,16.10
2023-03-10T10:00:25.710Z,16.10
2023-03-10T10:03:08.864Z,16.10
2023-03-10T10:05:39.433Z,16.20
2023-03-10T10:08:20.892Z,16.10
2023-03-10T10:10:55.050Z,16.10
2023-03-10T10:13:26.456Z,16.20
2023-03-10T10:16:21.460Z,16.20
2023-03-10T10:19:01.561Z,16.20
2023-03-10T10:21:43.077Z,16.20
2023-03-10T10:24:12.060Z,16.30
2023-03-10T10:26:39.931Z,16.20
2023-03-10T10:29:17.364Z,16.30
2023-03-10T10:32:05.946Z,16.30
2023-03-10T10:34:37.171Z,16.30
2023-03-10T10:37:29.468Z,16.30
2023-03-10T10:40:00.340Z,16.30
2023-03-10T10:42:30.930Z,16.40
2023-03-10T10:45:02.258Z,16.40
2023-03-10T10:47:33.561Z,16.40
2023-03-10T10:50:22.789Z,16.30
2023-03-10T10:52:53.311Z,16.40
2023-03-10T10:55:34.336Z,16.40
2023-03-10T10:58:06.604Z,16.40
2023-03-10T11:00:38.210Z,16.40
2023-03-10T11:03:25.132Z,16.40
2023-03-10T11:05:56.398Z,16.50
2023-03-10T11:08:40.612Z,16.50
2023-03-10T11:11:23.322Z,16.50
2023-03-10T11:14:14.572Z,16.50
2023-03-10T11:16:53.861Z,16.50
2023-03-10T11:19:32.617Z,16.60
2023-03-10T11:22:14.584Z,16.60
2023-03-10T11:24:54.079Z,16.60
2023-03-10T11:27:32.831Z,16.60
2023-03-10T11:30:14.876Z,16.60
2023-03-10T11:32:59.226Z,16.60
2023-03-10T11:35:37.025Z,16.60
2023-03-10T11:38:34.162Z,16.60
2023-03-10T11:41:07.611Z,16.70
2023-03-10T11:43:53.526Z,16.70
2023-03-10T11:46:28.667Z,16.70
2023-03-10T11:49:09.274Z,16.70
2023-03-10T11:51:42.765Z,16.70
2023-03-10T11:54:21.172Z,16.70
2023-03-10T11:56:51.765Z,16.80
2023-03-10T11:59:23.773Z,16.80
2023-03-10T12:01:56.717Z,16.80
2023-03-10T12:04:31.816Z,16.80
2023-03-10T12:07:08.571Z,16.80
2023-03-10T12:09:46.340Z,16.80
2023-03-10T12:12:18.247Z,16.80
2023-03-10T12:14:47.721Z,16.80
2023-03-10T12:17:18.440Z,16.80
2023-03-10T12:20:20.173Z,16.80
2023-03-10T12:22:50.862Z,16.90
2023-03-10T12:25:46.662Z,16.80
2023-03-10T12:28:27.356Z,16.90
2023-03-10T12:30:58.867Z,16.90
2023-03-10T12:33:58.372Z,16.90
2023-03-10T12:36:39.410Z,16.90
2023-03-10T12:39:42.468Z,16.90
2023-03-10T12:42:33.158Z,16.90
2023-03-10T12:45:21.321Z,16.90
2023-03-10T12:47:59.254Z,16.90
2023-03-10T12:50:36.702Z,17.00
2023-03-10T12:53:29.598Z,16.90
2023-03-10T12:56:23.195Z,17.00
2023-03-10T12:59:01.861Z,17.00
2023-03-10T13:01:49.510Z,17.00
2023-03-10T13:04:23.627Z,17.00
2023-03-10T13:06:57.627Z,17.10
2023-03-10T13:09:30.830Z,17.10
2023-03-10T13:12:04.798Z,17.10
2023-03-10T13:14:39.878Z,17.00
2023-03-10T13:17:22.602Z,17.10
2023-03-10T13:20:01.467Z,17.10
2023-03-10T13:22:29.682Z,17.20
2023-03-10T13:25:04.279Z,17.10
2023-03-10T13:27:34.730Z,17.20
2023-03-10T13:30:13.170Z,17.10
2023-03-10T13:32:42.101Z,17.20
2023-03-10T13:35:25.642Z,17.10
2023-03-10T13:38:13.655Z,17.10
2023-03-10T13:40:45.814Z,17.20
2023-03-10T13:43:44.857Z,17.10
2023-03-10T13:46:19.335Z,17.20
2023-03-10T13:48:48.550Z,17.20
2023-03-10T13:51:23.247Z,17.20
2023-03-10T13:53:55.113Z,17.20
2023-03-10T13:56:26.322Z,17.20
2023-03-10T13:58:58.527Z,17.20
2023-03-10T14:01:32.645Z,17.20
2023-03-10T14:04:05.867Z,17.20
2023-03-10T14:06:34.300Z,17.20
2023-03-10T14:09:16.489Z,17.20
2023-03-10T14:11:46.977Z,17.20
2023-03-10T14:14:28.836Z,17.10
2023-03-10T14:17:00.919Z,17.10
2023-03-10T14:19:53.110Z,17.10
2023-03-10T14:22:31.114Z,17.10
2023-03-10T14:25:01.884Z,17.10
2023-03-10T14:27:29.853Z,17.10
2023-03-10T14:30:02.973Z,17.10
2023-03-10T14:32:32.187Z,17.10
2023-03-10T14:35:00.143Z,17.00
2023-03-10T14:37:28.036Z,17.10
2023-03-10T14:39:55.912Z,17.10
2023-03-10T14:42:30.177Z,17.00
2023-03-10T14:45:06.406Z,17.00
2023-03-10T14:47:36.300Z,17.00
2023-03-10T14:50:04.594Z,17.00
2023-03-10T14:52:32.571Z,17.00
2023-03-10T14:55:00.468Z,17.00
2023-03-10T14:57:28.879Z,16.90
2023-03-10T14:59:56.825Z,16.90
2023-03-10T15:02:28.970Z,16.90
2023-03-10T15:04:58.286Z,16.90
2023-03-10T15:07:26.265Z,16.90
2023-03-10T15:10:05.386Z,16.90
2023-03-10T15:12:39.488Z,16.90
2023-03-10T15:15:16.508Z,16.80
2023-03-10T15:17:44.987Z,16.90
2023-03-10T15:20:17.642Z,16.80
2023-03-10T15:22:46.279Z,16.80
2023-03-10T15:25:16.040Z,16.80
2023-03-10T15:27:48.287Z,16.80
2023-03-10T15:30:22.032Z,16.80
2023-03-10T15:32:50.395Z,16.80
2023-03-10T15:35:23.653Z,16.80
2023-03-10T15:37:53.327Z,16.80
2023-03-10T15:40:24.054Z,16.80
2023-03-10T15:42:52.828Z,16.80
2023-03-10T15:45:20.897Z,16.80
2023-03-10T15:47:49.862Z,16.80
2023-03-10T15:50:21.767Z,16.70
2023-03-10T15:52:51.923Z,16.70
2023-03-10T15:55:21.079Z,16.70
2023-03-10T15:57:50.094Z,16.70
2023-03-10T16:00:20.183Z,16.70
2023-03-10T16:02:49.468Z,16.70
2023-03-10T16:05:20.090Z,16.70
2023-03-10T16:07:48.462Z,16.70
2023-03-10T16:10:19.956Z,16.70
2023-03-10T16:12:48.021Z,16.70
2023-03-10T16:15:18.355Z,16.70
2023-03-10T16:17:46.801Z,16.70
2023-03-10T16:20:18.955Z,16.70
2023-03-10T16:22:48.179Z,16.60
2023-03-10T16:25:20.898Z,16.60
2023-03-10T16:27:50.936Z,16.60
2023-03-10T16:30:20.337Z,16.60
2023-03-10T16:32:50.788Z,16.60
2023-03-10T16:35:19.451Z,16.60
2023-03-10T16:37:48.659Z,16.60
2023-03-10T16:40:16.803Z,16.60
2023-03-10T16:42:46.268Z,16.60
2023-03-10T16:45:14.759Z,16.50
2023-03-10T16:47:43.972Z,16.50
2023-03-10T16:50:14.242Z,16.40
2023-03-10T16:52:43.224Z,16.50
2023-03-10T16:55:18.309Z,16.50
2023-03-10T16:57:46.681Z,16.40
2023-03-10T17:00:20.904Z,16.50
2023-03-10T17:02:49.021Z,16.50
2023-03-10T17:05:18.137Z,16.50
2023-03-10T17:07:55.667Z,16.40
2023-03-10T17:10:26.718Z,16.40
2023-03-10T17:12:54.671Z,16.40
2023-03-10T17:15:22.580Z,16.40
2023-03-10T17:17:50.447Z,16.40
2023-03-10T17:20:19.805Z,16.40
2023-03-10T17:22:47.823Z,16.40
2023-03-10T17:25:15.778Z,16.30
2023-03-10T17:27:44.966Z,16.30
2023-03-10T17:30:15.517Z,16.30
2023-03-10T17:32:43.600Z,16.30
2023-03-10T17:35:11.617Z,16.30
2023-03-10T17:37:40.687Z,16.30
2023-03-10T17:40:10.696Z,16.30
2023-03-10T17:42:38.753Z,16.30
2023-03-10T17:45:09.909Z,16.20
2023-03-10T17:47:38.024Z,16.20
2023-03-10T17:50:07.027Z,16.20
2023-03-10T17:52:35.054Z,16.20
2023-03-10T17:55:10.341Z,16.20
2023-03-10T17:57:40.696Z,16.20
2023-03-10T18:00:12.711Z,16.10
2023-03-10T18:02:40.900Z,16.10
2023-03-10T18:05:10.180Z,16.10
2023-03-10T18:07:38.080Z,16.10
2023-03-10T18:10:08.528Z,16.10
2023-03-10T18:12:36.712Z,16.10
2023-03-10T18:15:05.668Z,16.10
2023-03-10T18:17:34.873Z,16.00
2023-03-10T18:20:02.854Z,16.10
2023-03-10T18:22:30.778Z,16.00
2023-03-10T18:25:01.436Z,16.00
2023-03-10T18:27:29.750Z,16.00
2023-03-10T18:29:57.864Z,16.00
2023-03-10T18:32:27.272Z,16.00
2023-03-10T18:34:59.171Z,16.00
2023-03-10T18:37:27.675Z,16.00
2023-03-10T18:39:55.683Z,16.00
2023-03-10T18:42:23.612Z,15.90
2023-03-10T18:44:51.524Z,15.90
2023-03-10T18:47:20.054Z,15.90
2023-03-10T18:49:47.999Z,15.90
2023-03-10T18:52:17.293Z,15.90
2023-03-10T18:54:45.302Z,15.90
2023-03-10T18:57:14.611Z,15.90
2023-03-10T18:59:42.839Z,15.90
2023-03-10T19:02:15.304Z,15.80
2023-03-10T19:04:47.526Z,15.80
2023-03-10T19:07:17.636Z,15.80
2023-03-10T19:09:45.518Z,15.80
2023-03-10T19:12:13.521Z,15.80
2023-03-10T19:14:41.494Z,15.80
2023-03-10T19:17:09.365Z,15.80
2023-03-10T19:19:37.315Z,15.60
2023-03-10T19:22:05.218Z,15.80
2023-03-10T19:24:34.425Z,15.70
2023-03-10T19:27:04.052Z,15.70
2023-03-10T19:29:33.040Z,15.70
2023-03-10T19:32:00.969Z,15.70
2023-03-10T19:34:28.876Z,15.70
2023-03-10T19:36:56.774Z,15.70
2023-03-10T19:39:24.684Z,15.70
2023-03-10T19:41:53.896Z,15.70
2023-03-10T19:44:22.216Z,15.70
2023-03-10T19:46:50.157Z,15.70
2023-03-10T19:49:18.159Z,15.70
2023-03-10T19:51:46.487Z,15.70
2023-03-10T19:54:14.425Z,15.70
2023-03-10T19:56:42.320Z,15.60
2023-03-10T19:59:12.207Z,15.70
2023-03-10T20:01:42.055Z,15.70
2023-03-10T20:04:11.803Z,15.50
2023-03-10T20:06:40.619Z,15.60
2023-03-10T20:09:10.471Z,15.60
2023-03-10T20:11:38.812Z,15.60
2023-03-10T20:14:07.440Z,15.60
2023-03-10T20:16:37.638Z,15.60
2023-03-10T20:19:05.639Z,15.60
2023-03-10T20:21:34.166Z,15.60
2023-03-10T20:24:02.292Z,15.60
2023-03-10T20:26:30.381Z,15.50
2023-03-10T20:28:59.879Z,15.50
2023-03-10T20:31:33.805Z,15.50
2023-03-10T20:34:06.843Z,15.50
2023-03-10T20:36:35.397Z,15.50
2023-03-10T20:39:03.308Z,15.50
2023-03-10T20:41:31.288Z,15.50
2023-03-10T20:43:59.276Z,15.50
2023-03-10T20:46:27.921Z,15.40
2023-03-10T20:48:55.871Z,15.40
2023-03-10T20:51:25.453Z,15.40
2023-03-10T20:53:53.870Z,15.40
2023-03-10T20:56:22.354Z,15.20
2023-03-10T20:58:51.005Z,15.40
2023-03-10T21:01:22.387Z,15.30
2023-03-10T21:03:54.413Z,15.30
2023-03-10T21:06:23.139Z,15.30
2023-03-10T21:08:52.572Z,15.30
2023-03-10T21:11:20.949Z,15.30
2023-03-10T21:13:48.975Z,15.30
2023-03-10T21:16:18.568Z,15.30
2023-03-10T21:18:47.562Z,15.30
2023-03-10T21:21:15.453Z,15.30
2023-03-10T21:23:43.925Z,15.20
2023-03-10T21:26:16.200Z,15.20
2023-03-10T21:28:52.750Z,15.20
2023-03-10T21:31:20.658Z,15.20
2023-03-10T21:33:50.101Z,15.20
2023-03-10T21:36:25.682Z,15.20
2023-03-10T21:38:53.907Z,15.20
2023-03-10T21:41:26.101Z,15.10
2023-03-10T21:43:55.154Z,15.10
2023-03-10T21:46:24.359Z,15.10
2023-03-10T21:48:53.061Z,15.10
2023-03-10T21:51:24.092Z,15.10
2023-03-10T21:53:53.962Z,15.10
2023-03-10T21:56:25.824Z,15.00
2023-03-10T21:58:53.886Z,15.10
2023-03-10T22:01:23.196Z,15.00
2023-03-10T22:03:51.718Z,15.00
2023-03-10T22:06:19.800Z,15.00
2023-03-10T22:08:47.685Z,14.90
2023-03-10T22:11:15.757Z,14.90
2023-03-10T22:13:45.602Z,14.90
2023-03-10T22:16:17.840Z,14.90
2023-03-10T22:18:46.791Z,14.90
2023-03-10T22:21:14.679Z,14.80
2023-03-10T22:23:43.770Z,14.90
2023-03-10T22:26:12.339Z,14.80
2023-03-10T22:28:41.037Z,14.80
2023-03-10T22:31:11.278Z,14.80
2023-03-10T22:33:39.358Z,14.80
2023-03-10T22:36:12.006Z,14.80
2023-03-10T22:38:40.243Z,14.70
2023-03-10T22:41:11.694Z,14.70
2023-03-10T22:43:39.797Z,14.70
2023-03-10T22:46:12.094Z,14.70
2023-03-10T22:48:40.537Z,14.70
2023-03-10T22:51:09.283Z,14.70
2023-03-10T22:53:38.291Z,14.60
2023-03-10T22:56:06.977Z,14.60
2023-03-10T22:58:34.937Z,14.60
2023-03-10T23:01:02.854Z,14.60
2023-03-10T23:03:33.366Z,14.50
2023-03-10T23:06:04.274Z,14.50
2023-03-10T23:08:32.280Z,14.50
2023-03-10T23:11:00.188Z,14.40
2023-03-10T23:13:28.056Z,14.40
2023-03-10T23:15:56.065Z,14.40
2023-03-10T23:18:23.936Z,14.40
2023-03-10T23:20:53.169Z,14.30
2023-03-10T23:23:21.103Z,14.30
2023-03-10T23:25:51.764Z,14.20
2023-03-10T23:28:21.803Z,14.20
2023-03-10T23:30:51.302Z,14.20
2023-03-10T23:33:22.827Z,14.10
2023-03-10T23:35:54.299Z,14.00
2023-03-10T23:38:24.918Z,14.00
2023-03-10T23:40:55.319Z,14.00
2023-03-10T23:43:23.766Z,14.00
2023-03-10T23:45:51.829Z,13.90
2023-03-10T23:48:21.144Z,13.90
2023-03-10T23:50:49.512Z,13.90
2023-03-10T23:53:20.647Z,13.80
2023-03-10T23:55:49.112Z,13.80
2023-03-10T23:58:19.500Z,13.70
